Time;durP1;ratioP1;P1;durP2;ratioP2;P2;SDS_P1;SDS_P2;PMS_P1;PMS_P2;Temp;Humidity;BMP_temperature;BMP_pressure;BME280_temperature;BME280_humidity;BME280_pressure;Samples;Min_cycle;Max_cycle;Signal;HPM_P1;HPM_P2
2022/11/05 00:10:22;;;;;;;9.02;2.03;;;;;;;;;;5036463;28;20045;-64
2022/11/05 00:18:18;;;;;;;11.75;3.13;;;;;;;;;;5066596;28;20061;-64
2022/11/05 00:20:44;;;;;;;5.00;1.77;;;;;;;;;;5037881;28;20044;-64
2022/11/05 00:26:00;;;;;;;9.05;2.47;;;;;;;;;;5039707;28;20053;-64
2022/11/05 00:28:27;;;;;;;12.68;2.10;;;;;;;;;;5037199;28;20495;-64
2022/11/05 00:30:53;;;;;;;12.57;2.70;;;;;;;;;;5036549;28;20049;-63
2022/11/05 00:33:20;;;;;;;11.75;2.38;;;;;;;;;;5037019;28;20118;-63
2022/11/05 00:35:46;;;;;;;9.77;2.55;;;;;;;;;;5037560;28;20099;-63
2022/11/05 00:38:12;;;;;;;10.60;2.28;;;;;;;;;;5038164;28;20103;-64
2022/11/05 00:40:38;;;;;;;11.25;2.42;;;;;;;;;;5041776;28;20392;-63
2022/11/05 00:45:49;;;;;;;8.40;2.28;;;;;;;;;;5035192;28;20056;-63
2022/11/05 00:51:01;;;;;;;13.85;2.30;;;;;;;;;;5035445;28;20064;-63
2022/11/05 00:53:27;;;;;;;10.77;3.13;;;;;;;;;;5037396;28;20047;-63
2022/11/05 00:55:53;;;;;;;12.13;2.13;;;;;;;;;;5036685;28;20072;-63
2022/11/05 00:58:20;;;;;;;13.90;2.33;;;;;;;;;;5035844;28;20506;-63
2022/11/05 01:00:49;;;;;;;10.55;2.55;;;;;;;;;;5034080;28;20251;-63
2022/11/05 01:03:16;;;;;;;16.55;3.45;;;;;;;;;;5036724;28;20051;-63
2022/11/05 01:05:44;;;;;;;15.43;2.63;;;;;;;;;;5035911;28;20077;-63
2022/11/05 01:08:11;;;;;;;10.32;2.67;;;;;;;;;;5039465;28;20486;-63
2022/11/05 01:10:45;;;;;;;10.13;2.17;;;;;;;;;;5040455;28;20112;-63
2022/11/05 01:13:11;;;;;;;18.80;2.92;;;;;;;;;;5039906;28;20043;-63
2022/11/05 01:15:37;;;;;;;9.82;2.33;;;;;;;;;;5036276;28;20119;-63
2022/11/05 01:18:04;;;;;;;7.30;1.98;;;;;;;;;;5035382;28;20055;-63
2022/11/05 01:20:31;;;;;;;9.35;2.75;;;;;;;;;;5038609;28;20049;-63
2022/11/05 01:22:58;;;;;;;7.75;2.40;;;;;;;;;;5068243;28;20053;-63
2022/11/05 01:25:24;;;;;;;8.45;2.22;;;;;;;;;;5039281;28;20061;-63
2022/11/05 01:27:50;;;;;;;8.40;2.50;;;;;;;;;;5037685;28;20052;-63
2022/11/05 01:30:16;;;;;;;5.70;1.75;;;;;;;;;;5036034;28;20060;-64
2022/11/05 01:32:43;;;;;;;7.88;1.73;;;;;;;;;;5037126;28;20090;-63
2022/11/05 01:35:11;;;;;;;4.28;1.63;;;;;;;;;;5034669;28;20110;-63
2022/11/05 01:37:38;;;;;;;11.27;2.42;;;;;;;;;;5037850;28;20049;-63
2022/11/05 01:40:05;;;;;;;8.60;1.80;;;;;;;;;;5037873;28;20072;-63
2022/11/05 01:42:31;;;;;;;9.95;2.38;;;;;;;;;;5032992;28;20049;-63
2022/11/05 01:45:03;;;;;;;5.78;1.70;;;;;;;;;;5052958;28;20049;-63
2022/11/05 01:47:30;;;;;;;9.57;2.30;;;;;;;;;;5034675;28;20053;-63
2022/11/05 01:49:58;;;;;;;7.53;1.98;;;;;;;;;;5037180;28;20447;-63
2022/11/05 01:52:26;;;;;;;6.47;1.73;;;;;;;;;;5032831;28;20040;-63
2022/11/05 01:54:52;;;;;;;8.93;2.05;;;;;;;;;;5038005;28;20112;-63
2022/11/05 01:57:18;;;;;;;8.70;2.10;;;;;;;;;;5068972;28;20559;-63
2022/11/05 01:59:47;;;;;;;8.30;2.05;;;;;;;;;;5039097;28;20046;-63
2022/11/05 02:02:14;;;;;;;8.07;2.58;;;;;;;;;;5033741;28;20048;-63
2022/11/05 02:04:46;;;;;;;11.18;2.08;;;;;;;;;;5036892;28;20121;-63
2022/11/05 02:07:12;;;;;;;9.98;2.25;;;;;;;;;;5036545;28;20155;-64
2022/11/05 02:09:48;;;;;;;12.27;2.97;;;;;;;;;;5036491;28;20171;-63
2022/11/05 02:12:14;;;;;;;7.93;2.15;;;;;;;;;;5036866;28;20045;-64
2022/11/05 02:14:41;;;;;;;7.55;2.40;;;;;;;;;;5036330;28;20173;-64
2022/11/05 02:17:13;;;;;;;8.00;2.38;;;;;;;;;;5037245;28;20396;-63
2022/11/05 02:20:00;;;;;;;12.77;2.90;;;;;;;;;;5035996;28;20041;-63
2022/11/05 02:22:39;;;;;;;9.43;3.35;;;;;;;;;;5036152;28;20128;-63
2022/11/05 02:25:18;;;;;;;13.73;3.22;;;;;;;;;;5039491;28;20118;-63
2022/11/05 02:27:51;;;;;;;13.65;3.10;;;;;;;;;;5034535;28;20509;-63
2022/11/05 02:30:36;;;;;;;9.50;2.90;;;;;;;;;;5041559;28;20055;-64
2022/11/05 02:33:21;;;;;;;10.25;2.60;;;;;;;;;;5041765;28;20044;-63
2022/11/05 02:36:06;;;;;;;10.93;2.83;;;;;;;;;;5039022;28;20042;-63
2022/11/05 02:38:40;;;;;;;6.95;2.25;;;;;;;;;;5039441;28;20090;-64
2022/11/05 02:41:07;;;;;;;9.57;2.28;;;;;;;;;;5037826;28;20048;-63
2022/11/05 02:43:58;;;;;;;7.50;2.40;;;;;;;;;;5039466;28;20033;-63
2022/11/05 02:46:31;;;;;;;8.70;2.10;;;;;;;;;;5037598;28;20057;-63
2022/11/05 02:49:04;;;;;;;11.47;2.53;;;;;;;;;;5038737;28;20044;-63
2022/11/05 02:51:35;;;;;;;8.70;2.47;;;;;;;;;;5071385;28;20165;-63
2022/11/05 02:54:08;;;;;;;11.68;2.88;;;;;;;;;;5040862;28;20053;-63
2022/11/05 02:56:36;;;;;;;16.35;3.00;;;;;;;;;;5038691;28;20080;-64
2022/11/05 02:59:02;;;;;;;11.55;2.47;;;;;;;;;;5039766;28;20041;-63
2022/11/05 03:01:28;;;;;;;7.10;2.30;;;;;;;;;;5039688;28;20044;-63
2022/11/05 03:03:59;;;;;;;11.95;3.00;;;;;;;;;;5038933;28;20045;-63
2022/11/05 03:06:35;;;;;;;8.93;2.10;;;;;;;;;;5067039;28;20437;-63
2022/11/05 03:09:02;;;;;;;11.10;2.22;;;;;;;;;;5040361;28;20127;-63
2022/11/05 03:11:30;;;;;;;8.32;2.33;;;;;;;;;;5037647;28;20071;-63
2022/11/05 03:14:06;;;;;;;5.22;1.90;;;;;;;;;;5068576;28;20048;-64
2022/11/05 03:16:42;;;;;;;6.72;1.65;;;;;;;;;;5041399;28;20123;-63
2022/11/05 03:19:17;;;;;;;4.18;2.10;;;;;;;;;;5035392;28;20065;-63
2022/11/05 03:21:46;;;;;;;7.22;1.95;;;;;;;;;;5035981;28;20082;-63
2022/11/05 03:24:17;;;;;;;4.65;1.98;;;;;;;;;;5035584;28;20393;-63
2022/11/05 03:26:44;;;;;;;8.13;1.58;;;;;;;;;;5036505;28;20045;-63
2022/11/05 03:29:16;;;;;;;5.97;1.80;;;;;;;;;;5035254;28;20053;-63
2022/11/05 03:31:43;;;;;;;4.75;1.40;;;;;;;;;;5038060;28;20132;-63
2022/11/05 03:34:12;;;;;;;6.90;2.13;;;;;;;;;;5034493;28;21966;-63
2022/11/05 03:36:42;;;;;;;7.47;1.77;;;;;;;;;;5036190;28;20491;-63
2022/11/05 03:39:11;;;;;;;5.65;1.52;;;;;;;;;;5039135;28;20045;-63
2022/11/05 03:41:39;;;;;;;4.93;1.65;;;;;;;;;;5040359;28;22171;-63
2022/11/05 03:44:06;;;;;;;5.80;1.50;;;;;;;;;;5038474;28;20045;-64
2022/11/05 03:46:36;;;;;;;7.88;2.22;;;;;;;;;;5028306;28;20049;-64
2022/11/05 03:49:04;;;;;;;7.80;1.75;;;;;;;;;;5033392;28;20069;-63
2022/11/05 03:51:34;;;;;;;11.43;2.10;;;;;;;;;;5040468;28;21871;-63
2022/11/05 03:54:01;;;;;;;10.07;1.50;;;;;;;;;;5056640;28;20051;-63
2022/11/05 03:56:30;;;;;;;11.52;2.30;;;;;;;;;;5038816;28;20044;-64
2022/11/05 03:58:58;;;;;;;2.70;1.50;;;;;;;;;;5041567;28;20374;-64
2022/11/05 04:01:24;;;;;;;4.93;1.63;;;;;;;;;;5035748;28;20411;-64
2022/11/05 04:03:51;;;;;;;5.72;1.50;;;;;;;;;;5035626;28;20041;-64
2022/11/05 04:14:31;;;;;;;4.43;1.60;;;;;;;;;;5039433;28;20045;-64
2022/11/05 04:17:05;;;;;;;6.78;1.70;;;;;;;;;;5035438;28;20458;-64
2022/11/05 04:25:00;;;;;;;7.68;2.13;;;;;;;;;;5065351;28;20049;-63
2022/11/05 04:27:27;;;;;;;9.35;1.83;;;;;;;;;;5040415;28;20052;-64
2022/11/05 04:32:38;;;;;;;7.53;1.90;;;;;;;;;;5038075;28;20071;-63
2022/11/05 04:35:04;;;;;;;7.97;2.78;;;;;;;;;;5037245;28;20048;-63
2022/11/05 04:37:30;;;;;;;6.53;2.17;;;;;;;;;;5039112;28;20044;-64
2022/11/05 04:39:56;;;;;;;6.55;2.40;;;;;;;;;;5068739;28;20053;-64
2022/11/05 04:42:23;;;;;;;7.65;2.22;;;;;;;;;;5035424;28;20160;-64
2022/11/05 04:44:49;;;;;;;12.13;2.80;;;;;;;;;;5035076;28;20072;-64
2022/11/05 04:47:15;;;;;;;5.47;2.13;;;;;;;;;;5036013;28;20516;-64
2022/11/05 04:49:41;;;;;;;11.65;2.83;;;;;;;;;;5032550;28;20523;-63
2022/11/05 04:52:07;;;;;;;4.72;2.08;;;;;;;;;;5038881;28;20073;-63
2022/11/05 04:54:33;;;;;;;7.75;2.85;;;;;;;;;;5033864;28;20037;-63
2022/11/05 04:57:00;;;;;;;8.55;2.90;;;;;;;;;;5031511;28;20067;-64
2022/11/05 04:59:26;;;;;;;11.60;2.92;;;;;;;;;;5033979;28;20747;-63
2022/11/05 05:01:52;;;;;;;12.27;2.65;;;;;;;;;;5033126;28;20464;-63
2022/11/05 05:04:19;;;;;;;10.23;3.08;;;;;;;;;;5035362;28;20044;-63
2022/11/05 05:06:45;;;;;;;6.45;2.75;;;;;;;;;;5034678;28;20061;-63
2022/11/05 05:09:11;;;;;;;8.73;3.40;;;;;;;;;;5036882;28;20041;-64
2022/11/05 05:11:37;;;;;;;16.48;3.38;;;;;;;;;;5036446;28;20045;-63
2022/11/05 05:14:04;;;;;;;11.02;3.20;;;;;;;;;;5068161;28;20063;-63
2022/11/05 05:16:30;;;;;;;10.65;2.65;;;;;;;;;;5038129;28;20045;-63
2022/11/05 05:18:56;;;;;;;8.70;3.40;;;;;;;;;;5034757;28;20041;-64
2022/11/05 05:21:38;;;;;;;8.30;3.00;;;;;;;;;;5067062;28;20048;-63
2022/11/05 05:24:07;;;;;;;12.25;4.50;;;;;;;;;;5038684;28;20047;-63
2022/11/05 05:26:34;;;;;;;11.77;3.95;;;;;;;;;;5039167;28;20049;-63
2022/11/05 05:29:00;;;;;;;7.18;3.10;;;;;;;;;;5040604;28;20045;-64
2022/11/05 05:31:26;;;;;;;10.63;3.03;;;;;;;;;;5036999;28;20072;-63
2022/11/05 05:33:53;;;;;;;8.13;2.90;;;;;;;;;;5035898;28;20113;-63
2022/11/05 05:36:19;;;;;;;8.82;2.97;;;;;;;;;;5040945;28;20049;-63
2022/11/05 05:38:45;;;;;;;7.13;2.70;;;;;;;;;;5036518;28;20076;-63
2022/11/05 05:41:11;;;;;;;6.32;2.90;;;;;;;;;;5034479;28;20045;-63
2022/11/05 05:43:37;;;;;;;8.98;2.45;;;;;;;;;;5038580;28;20098;-63
2022/11/05 05:46:04;;;;;;;6.40;2.15;;;;;;;;;;5064904;28;20559;-63
2022/11/05 05:48:30;;;;;;;11.73;2.28;;;;;;;;;;5033475;28;20048;-63
2022/11/05 05:51:01;;;;;;;6.00;2.05;;;;;;;;;;5037008;28;20044;-63
2022/11/05 05:53:28;;;;;;;10.38;2.15;;;;;;;;;;5037901;28;20060;-64
2022/11/05 05:55:54;;;;;;;8.70;2.65;;;;;;;;;;5066966;28;20060;-63
2022/11/05 05:58:21;;;;;;;5.78;1.98;;;;;;;;;;5073220;28;20661;-63
2022/11/05 06:00:47;;;;;;;7.70;2.05;;;;;;;;;;5043542;28;20052;-63
2022/11/05 06:03:13;;;;;;;5.30;1.60;;;;;;;;;;5038773;28;20048;-63
2022/11/05 06:05:40;;;;;;;4.72;1.50;;;;;;;;;;5041554;28;20041;-63
2022/11/05 06:08:06;;;;;;;6.97;1.83;;;;;;;;;;5039019;28;20051;-63
2022/11/05 06:10:32;;;;;;;8.40;1.10;;;;;;;;;;5042574;28;20037;-63
2022/11/05 06:12:59;;;;;;;8.40;1.30;;;;;;;;;;5039634;28;20037;-63
2022/11/05 06:15:25;;;;;;;5.75;1.42;;;;;;;;;;5040925;28;20151;-63
2022/11/05 06:17:51;;;;;;;9.85;1.80;;;;;;;;;;5038666;28;20132;-63
2022/11/05 06:20:17;;;;;;;11.00;2.22;;;;;;;;;;5037341;28;20068;-63
2022/11/05 06:22:44;;;;;;;11.70;2.53;;;;;;;;;;5036854;28;20048;-63
2022/11/05 06:25:10;;;;;;;6.45;2.28;;;;;;;;;;5037933;28;20522;-63
2022/11/05 06:27:36;;;;;;;6.60;2.10;;;;;;;;;;5072480;28;20036;-64
2022/11/05 06:30:04;;;;;;;8.02;2.55;;;;;;;;;;5038972;28;20476;-63
2022/11/05 06:32:30;;;;;;;9.35;2.65;;;;;;;;;;5042823;28;20041;-63
2022/11/05 06:34:56;;;;;;;9.20;2.90;;;;;;;;;;5044877;28;20146;-63
2022/11/05 06:37:22;;;;;;;9.18;3.22;;;;;;;;;;5044570;28;20110;-63
2022/11/05 06:39:49;;;;;;;13.68;3.10;;;;;;;;;;5071953;28;20055;-63
2022/11/05 06:42:15;;;;;;;9.32;3.63;;;;;;;;;;5042079;28;20141;-63
2022/11/05 06:44:41;;;;;;;11.45;3.42;;;;;;;;;;5039291;28;20052;-63
2022/11/05 06:47:07;;;;;;;9.07;2.85;;;;;;;;;;5039938;28;20052;-63
2022/11/05 06:49:33;;;;;;;9.77;3.70;;;;;;;;;;5040164;28;20473;-62
2022/11/05 06:51:59;;;;;;;6.68;3.00;;;;;;;;;;5042672;28;20045;-63
2022/11/05 06:54:25;;;;;;;7.10;3.38;;;;;;;;;;5041547;28;20045;-63
2022/11/05 06:56:52;;;;;;;5.88;3.20;;;;;;;;;;5042968;28;20122;-62
2022/11/05 06:59:18;;;;;;;6.57;3.15;;;;;;;;;;5042238;28;20090;-62
2022/11/05 07:01:44;;;;;;;9.02;2.78;;;;;;;;;;5074411;28;20076;-63
2022/11/05 07:04:11;;;;;;;8.23;3.53;;;;;;;;;;5043217;28;20095;-62
2022/11/05 07:06:37;;;;;;;13.20;3.55;;;;;;;;;;5047332;28;20068;-64
2022/11/05 07:09:04;;;;;;;11.38;5.30;;;;;;;;;;5043331;28;20037;-63
2022/11/05 07:11:30;;;;;;;12.63;4.30;;;;;;;;;;5047441;28;20045;-63
2022/11/05 07:13:56;;;;;;;10.35;4.07;;;;;;;;;;5045000;28;20045;-63
2022/11/05 07:16:22;;;;;;;12.40;4.72;;;;;;;;;;5048605;28;20443;-63
2022/11/05 07:18:49;;;;;;;12.50;4.40;;;;;;;;;;5079419;28;20155;-63
2022/11/05 07:21:15;;;;;;;12.25;5.13;;;;;;;;;;5076950;28;20049;-63
2022/11/05 07:23:41;;;;;;;7.20;4.10;;;;;;;;;;5042202;28;20041;-64
2022/11/05 07:26:07;;;;;;;10.18;3.90;;;;;;;;;;5041269;28;20045;-63
2022/11/05 07:28:33;;;;;;;13.63;4.60;;;;;;;;;;5045649;28;20033;-63
2022/11/05 07:30:59;;;;;;;13.00;4.53;;;;;;;;;;5046554;28;20132;-63
2022/11/05 07:33:26;;;;;;;12.02;4.28;;;;;;;;;;5041367;28;20056;-63
2022/11/05 07:35:52;;;;;;;13.50;4.45;;;;;;;;;;5042860;28;20056;-63
2022/11/05 07:38:18;;;;;;;12.23;5.53;;;;;;;;;;5042981;28;20040;-63
2022/11/05 07:40:44;;;;;;;8.88;4.45;;;;;;;;;;5042240;28;20515;-63
2022/11/05 07:43:10;;;;;;;11.88;4.65;;;;;;;;;;5044439;28;20037;-63
2022/11/05 07:45:37;;;;;;;7.13;3.92;;;;;;;;;;5078316;28;20048;-63
2022/11/05 07:48:04;;;;;;;8.38;4.03;;;;;;;;;;5039804;28;20041;-64
2022/11/05 07:50:31;;;;;;;8.95;3.83;;;;;;;;;;5041115;28;20052;-64
2022/11/05 07:53:01;;;;;;;8.20;4.13;;;;;;;;;;5042047;28;20048;-63
2022/11/05 07:55:27;;;;;;;9.65;4.68;;;;;;;;;;5042784;28;20380;-64
2022/11/05 07:57:53;;;;;;;9.40;4.88;;;;;;;;;;5044358;28;20140;-64
2022/11/05 08:00:21;;;;;;;13.95;5.22;;;;;;;;;;5044353;28;20437;-63
2022/11/05 08:02:57;;;;;;;12.02;5.13;;;;;;;;;;5035477;28;20073;-63
2022/11/05 08:05:23;;;;;;;10.15;4.15;;;;;;;;;;5036377;28;20041;-64
2022/11/05 08:07:49;;;;;;;7.75;4.75;;;;;;;;;;5045209;28;20049;-64
2022/11/05 08:10:16;;;;;;;12.43;5.00;;;;;;;;;;5058539;28;20136;-64
2022/11/05 08:12:42;;;;;;;9.68;5.05;;;;;;;;;;5046466;28;20090;-63
2022/11/05 08:15:08;;;;;;;14.75;4.90;;;;;;;;;;5046128;28;20401;-64
2022/11/05 08:17:35;;;;;;;14.73;4.47;;;;;;;;;;5040245;28;20049;-63
2022/11/05 08:20:01;;;;;;;11.68;4.20;;;;;;;;;;5043307;28;20051;-64
2022/11/05 08:22:27;;;;;;;5.82;4.10;;;;;;;;;;5041166;28;20400;-64
2022/11/05 08:24:53;;;;;;;11.65;4.18;;;;;;;;;;5035774;28;20033;-63
2022/11/05 08:27:20;;;;;;;11.20;4.57;;;;;;;;;;5041221;28;20049;-64
2022/11/05 08:29:46;;;;;;;12.32;4.18;;;;;;;;;;5038704;28;20041;-64
2022/11/05 08:32:12;;;;;;;11.48;4.05;;;;;;;;;;5040812;28;20072;-63
2022/11/05 08:34:38;;;;;;;9.65;3.65;;;;;;;;;;5072374;28;20037;-64
2022/11/05 08:37:04;;;;;;;8.77;4.03;;;;;;;;;;5040049;28;20060;-64
2022/11/05 08:39:30;;;;;;;11.05;4.00;;;;;;;;;;5041231;28;20400;-63
2022/11/05 08:41:57;;;;;;;10.45;3.97;;;;;;;;;;5044683;28;20497;-64
2022/11/05 08:44:23;;;;;;;12.80;4.22;;;;;;;;;;5033085;28;20099;-63
2022/11/05 08:46:49;;;;;;;11.68;4.05;;;;;;;;;;5040871;28;20055;-63
2022/11/05 08:49:15;;;;;;;12.80;4.10;;;;;;;;;;5039709;28;20044;-64
2022/11/05 08:51:43;;;;;;;11.80;4.25;;;;;;;;;;5039612;28;20044;-64
2022/11/05 08:54:09;;;;;;;12.48;3.88;;;;;;;;;;5038269;28;20076;-64
2022/11/05 08:56:35;;;;;;;11.82;4.03;;;;;;;;;;5043784;28;20045;-65
2022/11/05 08:59:01;;;;;;;11.55;3.63;;;;;;;;;;5038812;28;20049;-65
2022/11/05 09:01:28;;;;;;;9.60;3.50;;;;;;;;;;5077436;28;20472;-65
2022/11/05 09:03:54;;;;;;;7.78;3.50;;;;;;;;;;5039967;28;20162;-65
2022/11/05 09:06:20;;;;;;;11.65;5.20;;;;;;;;;;5044744;28;20048;-64
2022/11/05 09:08:46;;;;;;;11.57;3.95;;;;;;;;;;5042757;28;20040;-65
2022/11/05 09:11:12;;;;;;;8.70;3.63;;;;;;;;;;5041221;28;20041;-65
2022/11/05 09:13:39;;;;;;;8.82;4.22;;;;;;;;;;5046137;28;20048;-64
2022/11/05 09:16:05;;;;;;;13.75;4.40;;;;;;;;;;5044573;28;20044;-65
2022/11/05 09:18:31;;;;;;;14.25;4.07;;;;;;;;;;5042508;28;20049;-64
2022/11/05 09:20:57;;;;;;;12.82;3.92;;;;;;;;;;5043078;28;20048;-64
2022/11/05 09:23:23;;;;;;;9.40;3.75;;;;;;;;;;5041558;28;20064;-65
2022/11/05 09:25:50;;;;;;;6.65;3.05;;;;;;;;;;5032308;28;20060;-64
2022/11/05 09:28:17;;;;;;;9.43;3.15;;;;;;;;;;5042547;28;20128;-65
2022/11/05 09:30:45;;;;;;;13.13;3.75;;;;;;;;;;5072533;28;20406;-64
2022/11/05 09:33:11;;;;;;;15.60;3.78;;;;;;;;;;5069229;28;20041;-64
2022/11/05 09:35:38;;;;;;;9.18;2.90;;;;;;;;;;5066713;28;20135;-65
2022/11/05 09:38:05;;;;;;;9.70;3.40;;;;;;;;;;5040644;28;20465;-65
2022/11/05 09:40:32;;;;;;;11.55;4.30;;;;;;;;;;5042550;28;20049;-64
2022/11/05 09:42:58;;;;;;;10.55;3.35;;;;;;;;;;5040744;28;20041;-64
2022/11/05 09:45:26;;;;;;;9.50;3.28;;;;;;;;;;5041517;28;20042;-65
2022/11/05 09:47:55;;;;;;;10.20;3.45;;;;;;;;;;5040048;28;20371;-65
2022/11/05 09:50:25;;;;;;;12.52;3.15;;;;;;;;;;5041521;28;20080;-65
2022/11/05 09:52:51;;;;;;;10.48;3.53;;;;;;;;;;5042112;28;20135;-64
2022/11/05 09:55:22;;;;;;;10.30;3.15;;;;;;;;;;5043758;28;20055;-65
2022/11/05 09:57:52;;;;;;;10.07;2.92;;;;;;;;;;5076244;28;20045;-64
2022/11/05 10:00:18;;;;;;;9.55;2.47;;;;;;;;;;5043069;28;20530;-64
2022/11/05 10:02:49;;;;;;;6.10;2.65;;;;;;;;;;5040909;28;20041;-65
2022/11/05 10:05:17;;;;;;;9.77;2.08;;;;;;;;;;5035853;28;20057;-65
2022/11/05 10:07:47;;;;;;;8.70;2.20;;;;;;;;;;5067839;28;20083;-64
2022/11/05 10:10:25;;;;;;;10.25;2.85;;;;;;;;;;5039951;28;20115;-66
2022/11/05 10:12:53;;;;;;;7.38;2.42;;;;;;;;;;5026967;28;20059;-64
2022/11/05 10:15:29;;;;;;;12.55;2.58;;;;;;;;;;5035809;28;20547;-64
2022/11/05 10:17:58;;;;;;;8.90;2.75;;;;;;;;;;5035083;28;20179;-65
2022/11/05 10:20:32;;;;;;;7.10;2.13;;;;;;;;;;5034597;28;20986;-65
2022/11/05 10:22:58;;;;;;;;;;;;;;;;;;5037797;28;20419;-65
2022/11/05 10:25:27;;;;;;;9.27;2.10;;;;;;;;;;5033257;28;20344;-64
2022/11/05 10:27:54;;;;;;;11.73;3.53;;;;;;;;;;5036769;28;20083;-64
2022/11/05 10:30:21;;;;;;;10.75;2.55;;;;;;;;;;5041376;28;20453;-64
2022/11/05 10:32:48;;;;;;;9.02;2.72;;;;;;;;;;5034599;28;20552;-64
2022/11/05 10:35:17;;;;;;;8.73;2.20;;;;;;;;;;5039963;28;20040;-64
2022/11/05 10:37:45;;;;;;;12.70;3.20;;;;;;;;;;5035489;28;20127;-64
2022/11/05 10:40:26;;;;;;;7.93;2.55;;;;;;;;;;5041163;28;20048;-64
2022/11/05 10:42:58;;;;;;;7.18;2.13;;;;;;;;;;5038605;28;20484;-64
2022/11/05 10:45:24;;;;;;;12.27;2.78;;;;;;;;;;5074578;28;20041;-83
2022/11/05 10:47:50;;;;;;;8.93;2.35;;;;;;;;;;5056640;28;20123;-64
2022/11/05 10:50:18;;;;;;;8.63;2.42;;;;;;;;;;5041605;28;20133;-65
2022/11/05 10:52:47;;;;;;;7.68;2.40;;;;;;;;;;5043103;28;20037;-64
2022/11/05 10:55:15;;;;;;;8.50;2.28;;;;;;;;;;5043527;28;20045;-64
2022/11/05 10:57:42;;;;;;;7.78;2.10;;;;;;;;;;5042108;28;20068;-64
2022/11/05 11:00:14;;;;;;;10.45;2.28;;;;;;;;;;5044610;28;20049;-64
2022/11/05 11:02:45;;;;;;;9.30;2.13;;;;;;;;;;5040156;28;20080;-64
2022/11/05 11:05:18;;;;;;;8.07;3.03;;;;;;;;;;5071668;28;20701;-64
2022/11/05 11:07:51;;;;;;;7.85;1.95;;;;;;;;;;5071451;28;20477;-64
2022/11/05 11:10:21;;;;;;;8.63;1.95;;;;;;;;;;5037004;28;20083;-64
2022/11/05 11:12:48;;;;;;;5.20;1.92;;;;;;;;;;5043004;28;20041;-65
2022/11/05 11:15:26;;;;;;;9.07;1.88;;;;;;;;;;5040700;28;20392;-63
2022/11/05 11:17:52;;;;;;;11.70;2.17;;;;;;;;;;5043403;28;20830;-63
2022/11/05 11:20:22;;;;;;;5.40;1.58;;;;;;;;;;5043141;28;20154;-64
2022/11/05 11:22:58;;;;;;;8.27;2.95;;;;;;;;;;5039494;28;20087;-64
2022/11/05 11:25:25;;;;;;;6.80;1.90;;;;;;;;;;5041214;28;20106;-64
2022/11/05 11:27:52;;;;;;;5.88;1.98;;;;;;;;;;5037478;28;20061;-64
2022/11/05 11:30:19;;;;;;;6.93;1.63;;;;;;;;;;5037722;28;22059;-64
2022/11/05 11:32:46;;;;;;;9.95;2.00;;;;;;;;;;5038382;28;20048;-63
2022/11/05 11:35:20;;;;;;;7.40;1.95;;;;;;;;;;5041538;28;20401;-64
2022/11/05 11:37:47;;;;;;;6.65;1.80;;;;;;;;;;5040997;28;20136;-64
2022/11/05 11:40:16;;;;;;;8.40;1.90;;;;;;;;;;5038177;28;20045;-63
2022/11/05 11:42:45;;;;;;;5.15;1.60;;;;;;;;;;5039525;28;20052;-64
2022/11/05 11:45:17;;;;;;;4.07;1.58;;;;;;;;;;5038469;28;20171;-63
2022/11/05 11:47:44;;;;;;;7.57;1.50;;;;;;;;;;5041230;28;20396;-63
2022/11/05 11:50:40;;;;;;;7.40;1.92;;;;;;;;;;5040850;28;20050;-63
2022/11/05 11:53:29;;;;;;;5.68;1.52;;;;;;;;;;5040107;28;20051;-64
2022/11/05 11:56:14;;;;;;;4.13;1.25;;;;;;;;;;5037836;28;20045;-63
2022/11/05 11:58:43;;;;;;;5.60;1.20;;;;;;;;;;5041848;28;20052;-69
2022/11/05 12:01:19;;;;;;;5.50;1.75;;;;;;;;;;5038738;28;20121;-63
2022/11/05 12:03:50;;;;;;;5.90;1.38;;;;;;;;;;5043566;28;20045;-63
2022/11/05 12:06:29;;;;;;;3.33;0.82;;;;;;;;;;5041112;28;20488;-63
2022/11/05 12:09:04;;;;;;;4.40;1.20;;;;;;;;;;5072154;28;20067;-64
2022/11/05 12:11:37;;;;;;;4.25;0.93;;;;;;;;;;5071634;28;20529;-64
2022/11/05 12:14:03;;;;;;;;;;;;;;;;;;5037323;28;20064;-64
2022/11/05 12:16:38;;;;;;;4.05;1.00;;;;;;;;;;5041515;28;20027;-64
2022/11/05 12:19:14;;;;;;;5.20;1.15;;;;;;;;;;5043848;28;20132;-64
2022/11/05 12:21:48;;;;;;;5.57;1.25;;;;;;;;;;5039562;28;20048;-64
2022/11/05 12:24:31;;;;;;;6.38;1.45;;;;;;;;;;5043063;28;20111;-64
2022/11/05 12:27:03;;;;;;;5.85;1.02;;;;;;;;;;5040862;28;20488;-64
2022/11/05 12:29:30;;;;;;;4.38;1.08;;;;;;;;;;5040391;28;20044;-63
2022/11/05 12:32:05;;;;;;;7.40;0.80;;;;;;;;;;5036261;28;20057;-64
2022/11/05 12:34:41;;;;;;;6.53;1.30;;;;;;;;;;5041961;28;20416;-64
2022/11/05 12:37:13;;;;;;;6.10;1.38;;;;;;;;;;5066661;28;20095;-64
2022/11/05 12:39:39;;;;;;;8.60;1.85;;;;;;;;;;5041009;28;20044;-63
2022/11/05 12:42:14;;;;;;;5.82;1.35;;;;;;;;;;5041186;28;20045;-63
2022/11/05 12:44:40;;;;;;;10.25;2.05;;;;;;;;;;5042732;28;20460;-63
2022/11/05 12:47:21;;;;;;;5.43;1.80;;;;;;;;;;5035443;28;20056;-63
2022/11/05 12:50:07;;;;;;;8.00;2.08;;;;;;;;;;5041572;28;20041;-63
2022/11/05 12:52:33;;;;;;;8.52;2.05;;;;;;;;;;5040145;28;20504;-63
2022/11/05 12:55:06;;;;;;;7.97;2.40;;;;;;;;;;5042042;28;20396;-64
2022/11/05 12:57:35;;;;;;;9.38;2.47;;;;;;;;;;5041186;28;20052;-63
2022/11/05 13:00:02;;;;;;;4.47;2.30;;;;;;;;;;5071521;28;20049;-63
2022/11/05 13:02:37;;;;;;;7.68;2.53;;;;;;;;;;5042762;28;20032;-63
2022/11/05 13:05:07;;;;;;;7.80;3.03;;;;;;;;;;5071754;28;20079;-63
2022/11/05 13:07:37;;;;;;;21.63;3.15;;;;;;;;;;5033189;28;20044;-63
2022/11/05 13:10:07;;;;;;;7.82;3.10;;;;;;;;;;5040830;28;20048;-63
2022/11/05 13:12:36;;;;;;;8.13;2.65;;;;;;;;;;5038449;28;20128;-63
2022/11/05 13:15:05;;;;;;;7.80;3.60;;;;;;;;;;5041926;28;20037;-63
2022/11/05 13:17:38;;;;;;;11.85;4.00;;;;;;;;;;5039899;28;21583;-63
2022/11/05 13:20:12;;;;;;;8.13;3.90;;;;;;;;;;5041699;28;20158;-63
2022/11/05 13:22:44;;;;;;;8.95;3.72;;;;;;;;;;5041642;28;20068;-63
2022/11/05 13:25:18;;;;;;;9.70;4.35;;;;;;;;;;5038868;28;20408;-63
2022/11/05 13:27:48;;;;;;;13.77;4.22;;;;;;;;;;5040647;28;20538;-64
2022/11/05 13:30:17;;;;;;;9.82;3.75;;;;;;;;;;5040960;28;20041;-64
2022/11/05 13:32:46;;;;;;;10.27;3.75;;;;;;;;;;5072429;28;20508;-64
2022/11/05 13:35:17;;;;;;;11.02;3.53;;;;;;;;;;5041941;28;20044;-63
2022/11/05 13:40:39;;;;;;;12.23;3.60;;;;;;;;;;5040711;28;21461;-63
2022/11/05 13:43:10;;;;;;;13.85;3.60;;;;;;;;;;5041722;28;20473;-64
2022/11/05 13:45:47;;;;;;;10.80;3.45;;;;;;;;;;5037899;28;20132;-64
2022/11/05 13:48:27;;;;;;;10.75;4.20;;;;;;;;;;5038899;28;20053;-64
2022/11/05 13:51:00;;;;;;;10.35;4.22;;;;;;;;;;5037541;28;20389;-63
2022/11/05 13:53:38;;;;;;;13.02;4.68;;;;;;;;;;5069464;28;20052;-64
2022/11/05 13:56:11;;;;;;;13.15;4.00;;;;;;;;;;5041177;28;20044;-63
2022/11/05 13:58:37;;;;;;;9.85;3.90;;;;;;;;;;5039636;28;20528;-63
2022/11/05 14:01:30;;;;;;;10.43;4.03;;;;;;;;;;5039266;28;20041;-63
2022/11/05 14:03:56;;;;;;;8.52;3.78;;;;;;;;;;5037745;28;20044;-63
2022/11/05 14:06:26;;;;;;;12.45;4.55;;;;;;;;;;5042017;28;20484;-63
2022/11/05 14:08:56;;;;;;;9.68;4.07;;;;;;;;;;5041245;28;20041;-63
2022/11/05 14:11:25;;;;;;;13.80;3.95;;;;;;;;;;5040203;28;20041;-64
2022/11/05 14:13:56;;;;;;;12.63;3.53;;;;;;;;;;5040565;28;20064;-63
2022/11/05 14:16:24;;;;;;;10.23;3.97;;;;;;;;;;5039121;28;20045;-64
2022/11/05 14:19:13;;;;;;;14.68;4.28;;;;;;;;;;5042460;28;20500;-64
2022/11/05 14:21:47;;;;;;;10.90;3.70;;;;;;;;;;5040896;28;20087;-64
2022/11/05 14:24:24;;;;;;;7.35;3.80;;;;;;;;;;5056873;28;20093;-64
2022/11/05 14:26:58;;;;;;;10.93;3.05;;;;;;;;;;5040871;28;20064;-64
2022/11/05 14:29:24;;;;;;;11.43;3.55;;;;;;;;;;5039344;28;20520;-63
2022/11/05 14:31:50;;;;;;;9.63;3.10;;;;;;;;;;5046628;28;20059;-63
2022/11/05 14:34:18;;;;;;;7.63;3.03;;;;;;;;;;5046873;28;20049;-64
2022/11/05 14:37:02;;;;;;;9.23;2.83;;;;;;;;;;5044064;28;20056;-63
2022/11/05 14:39:29;;;;;;;5.78;2.92;;;;;;;;;;5041410;28;20045;-63
2022/11/05 14:41:57;;;;;;;10.20;3.97;;;;;;;;;;5039415;28;20060;-64
2022/11/05 14:44:24;;;;;;;11.32;2.85;;;;;;;;;;5040552;28;20048;-64
2022/11/05 14:46:51;;;;;;;13.10;3.10;;;;;;;;;;5044086;28;20045;-64
2022/11/05 14:49:24;;;;;;;11.45;3.63;;;;;;;;;;5041365;28;20042;-64
2022/11/05 14:51:52;;;;;;;9.25;2.90;;;;;;;;;;5038998;28;20072;-64
2022/11/05 14:54:18;;;;;;;10.80;3.50;;;;;;;;;;5043948;28;20040;-64
2022/11/05 14:56:52;;;;;;;11.07;3.15;;;;;;;;;;5037559;28;20345;-64
2022/11/05 14:59:30;;;;;;;11.80;3.47;;;;;;;;;;5073270;28;20115;-64
2022/11/05 15:02:05;;;;;;;6.03;2.50;;;;;;;;;;5042741;28;20052;-64
2022/11/05 15:04:34;;;;;;;7.45;3.58;;;;;;;;;;5042191;28;20084;-63
2022/11/05 15:07:01;;;;;;;11.48;2.92;;;;;;;;;;5074664;28;20065;-63
2022/11/05 15:09:33;;;;;;;8.02;2.58;;;;;;;;;;5044043;28;20045;-63
2022/11/05 15:12:02;;;;;;;8.38;3.63;;;;;;;;;;5041803;28;20145;-63
2022/11/05 15:14:32;;;;;;;11.90;3.50;;;;;;;;;;5044177;28;20345;-63
2022/11/05 15:17:01;;;;;;;8.60;2.47;;;;;;;;;;5040700;28;20049;-63
2022/11/05 15:19:30;;;;;;;6.50;2.58;;;;;;;;;;5041080;28;20076;-64
2022/11/05 15:21:57;;;;;;;7.60;3.10;;;;;;;;;;5023537;28;20045;-64
2022/11/05 15:24:27;;;;;;;9.98;2.80;;;;;;;;;;5043543;28;20091;-63
2022/11/05 15:27:08;;;;;;;7.93;2.60;;;;;;;;;;5038852;28;20056;-64
2022/11/05 15:29:34;;;;;;;9.80;2.97;;;;;;;;;;5041878;28;20041;-64
2022/11/05 15:32:00;;;;;;;8.82;2.63;;;;;;;;;;5072566;28;20461;-63